Time;durP1;ratioP1;P1;durP2;ratioP2;P2;SDS_P1;SDS_P2;PMS_P1;PMS_P2;Temp;Humidity;BMP_temperature;BMP_pressure;BME280_temperature;BME280_humidity;BME280_pressure;Samples;Min_cycle;Max_cycle;Signal;HPM_P1;HPM_P2
2023/08/11 00:02:19;;;;;;;15.45;10.75;;;;;;;;;;5071630;28;20503;-82
2023/08/11 00:04:45;;;;;;;13.95;12.07;;;;;;;;;;5072633;28;20075;-82
2023/08/11 00:07:11;;;;;;;13.68;11.68;;;;;;;;;;5072347;28;20041;-82
2023/08/11 00:09:37;;;;;;;15.10;11.50;;;;;;;;;;5071976;28;20124;-84
2023/08/11 00:12:04;;;;;;;15.88;11.80;;;;;;;;;;5072095;28;20052;-83
2023/08/11 00:14:30;;;;;;;13.07;10.98;;;;;;;;;;5073092;28;20075;-83
2023/08/11 00:16:58;;;;;;;13.90;11.63;;;;;;;;;;5070257;28;20045;-82
2023/08/11 00:19:27;;;;;;;14.38;11.15;;;;;;;;;;5055170;28;20041;-82
2023/08/11 00:21:53;;;;;;;14.95;11.65;;;;;;;;;;5071149;28;20048;-82
2023/08/11 00:24:19;;;;;;;14.05;11.52;;;;;;;;;;5068270;28;20494;-83
2023/08/11 00:26:45;;;;;;;16.90;11.82;;;;;;;;;;5071184;28;20065;-82
2023/08/11 00:29:11;;;;;;;13.75;11.98;;;;;;;;;;5070808;28;20104;-82
2023/08/11 00:31:37;;;;;;;17.80;12.02;;;;;;;;;;5070748;28;20045;-83
2023/08/11 00:34:04;;;;;;;14.93;12.52;;;;;;;;;;5071846;28;20041;-82
2023/08/11 00:36:30;;;;;;;13.85;12.45;;;;;;;;;;5060357;28;20057;-85
2023/08/11 00:39:00;;;;;;;15.15;13.30;;;;;;;;;;5053230;28;20109;-83
2023/08/11 00:41:26;;;;;;;17.00;12.65;;;;;;;;;;5070539;28;20045;-83
2023/08/11 00:43:52;;;;;;;16.33;13.25;;;;;;;;;;5071084;28;20065;-84
2023/08/11 00:46:20;;;;;;;17.25;12.98;;;;;;;;;;5069019;28;20446;-83
2023/08/11 00:48:50;;;;;;;21.23;14.32;;;;;;;;;;5065805;28;20109;-83
2023/08/11 00:51:18;;;;;;;19.13;13.70;;;;;;;;;;5053175;28;20036;-83
2023/08/11 00:53:45;;;;;;;15.43;13.32;;;;;;;;;;5061038;28;20080;-83
2023/08/11 00:56:12;;;;;;;14.57;13.07;;;;;;;;;;5054075;28;20101;-83
2023/08/11 00:58:38;;;;;;;14.63;13.13;;;;;;;;;;5052250;28;20124;-83
2023/08/11 01:01:05;;;;;;;17.25;12.68;;;;;;;;;;5050432;28;20045;-83
2023/08/11 01:03:31;;;;;;;15.35;12.77;;;;;;;;;;5061570;28;20048;-83
2023/08/11 01:06:09;;;;;;;17.02;13.70;;;;;;;;;;5070555;28;20478;-84
2023/08/11 01:08:38;;;;;;;14.32;12.52;;;;;;;;;;5050105;28;20113;-83
2023/08/11 01:11:07;;;;;;;15.93;12.85;;;;;;;;;;5065522;28;20049;-83
2023/08/11 01:13:41;;;;;;;17.60;12.73;;;;;;;;;;5069203;28;20052;-83
2023/08/11 01:16:08;;;;;;;14.32;12.82;;;;;;;;;;5068847;28;20052;-83
2023/08/11 01:18:35;;;;;;;14.80;11.80;;;;;;;;;;5050230;28;20045;-84
2023/08/11 01:21:06;;;;;;;16.02;12.32;;;;;;;;;;5068261;28;20056;-83
2023/08/11 01:23:33;;;;;;;16.75;13.27;;;;;;;;;;5068402;28;20051;-83
2023/08/11 01:25:59;;;;;;;14.85;12.63;;;;;;;;;;5067989;28;20045;-83
2023/08/11 01:28:25;;;;;;;13.98;11.63;;;;;;;;;;5068124;28;20060;-83
2023/08/11 01:30:51;;;;;;;14.30;12.13;;;;;;;;;;5068877;28;20055;-83
2023/08/11 01:33:17;;;;;;;14.18;12.20;;;;;;;;;;5068868;28;20045;-83
2023/08/11 01:35:44;;;;;;;14.80;12.15;;;;;;;;;;5068108;28;20044;-83
2023/08/11 01:38:10;;;;;;;15.85;12.82;;;;;;;;;;5067826;28;20060;-84
2023/08/11 01:40:36;;;;;;;14.70;12.15;;;;;;;;;;5039392;28;20042;-83
2023/08/11 01:43:03;;;;;;;14.07;11.85;;;;;;;;;;5048475;28;20095;-83
2023/08/11 01:45:33;;;;;;;15.00;12.45;;;;;;;;;;5061753;28;20045;-83
2023/08/11 01:48:02;;;;;;;14.55;12.82;;;;;;;;;;5065643;28;20072;-83
2023/08/11 01:50:28;;;;;;;14.35;11.45;;;;;;;;;;5056565;28;20057;-82
2023/08/11 01:52:54;;;;;;;13.07;11.50;;;;;;;;;;5061034;28;20048;-83
2023/08/11 01:55:23;;;;;;;14.13;11.20;;;;;;;;;;5061856;28;20056;-83
2023/08/11 01:57:49;;;;;;;14.35;11.57;;;;;;;;;;5069211;28;20053;-83
2023/08/11 02:00:16;;;;;;;16.05;11.23;;;;;;;;;;5049278;28;20045;-84
2023/08/11 02:02:43;;;;;;;14.98;11.65;;;;;;;;;;5063665;28;20530;-84
2023/08/11 02:05:11;;;;;;;16.15;11.90;;;;;;;;;;5051399;28;20044;-83
2023/08/11 02:07:40;;;;;;;14.57;11.25;;;;;;;;;;5068874;28;20098;-84
2023/08/11 02:10:08;;;;;;;13.50;11.38;;;;;;;;;;5051924;28;20076;-84
2023/08/11 02:12:36;;;;;;;13.52;11.52;;;;;;;;;;5068318;28;20119;-84
2023/08/11 02:15:04;;;;;;;16.98;11.45;;;;;;;;;;5051956;28;20053;-83
2023/08/11 02:17:31;;;;;;;13.68;10.95;;;;;;;;;;5052337;28;20052;-83
2023/08/11 02:19:58;;;;;;;11.93;10.50;;;;;;;;;;5059768;28;20411;-82
2023/08/11 02:22:27;;;;;;;12.70;11.40;;;;;;;;;;5063139;28;20071;-83
2023/08/11 02:24:53;;;;;;;16.02;12.65;;;;;;;;;;5069728;28;20568;-83
2023/08/11 02:27:20;;;;;;;13.77;12.38;;;;;;;;;;5070249;28;20100;-83
2023/08/11 02:29:46;;;;;;;13.18;11.88;;;;;;;;;;5070455;28;20083;-84
2023/08/11 02:32:12;;;;;;;13.57;11.18;;;;;;;;;;5071199;28;20049;-83
2023/08/11 02:34:38;;;;;;;14.68;11.52;;;;;;;;;;5070709;28;20044;-84
2023/08/11 02:37:04;;;;;;;14.82;11.07;;;;;;;;;;5069289;28;20123;-83
2023/08/11 02:39:30;;;;;;;14.43;12.05;;;;;;;;;;5053443;28;20040;-82
2023/08/11 02:41:56;;;;;;;12.88;11.57;;;;;;;;;;5067456;28;20087;-82
2023/08/11 02:44:23;;;;;;;13.15;11.60;;;;;;;;;;5030810;28;20042;-83
2023/08/11 02:46:49;;;;;;;14.98;12.10;;;;;;;;;;5054287;28;20049;-83
2023/08/11 02:49:15;;;;;;;14.48;11.50;;;;;;;;;;5068516;28;20045;-82
2023/08/11 02:51:41;;;;;;;12.63;11.38;;;;;;;;;;5069143;28;20045;-82
2023/08/11 02:54:07;;;;;;;13.23;11.27;;;;;;;;;;5066648;28;20044;-83
2023/08/11 02:56:33;;;;;;;14.80;12.52;;;;;;;;;;5065621;28;20037;-83
2023/08/11 02:58:59;;;;;;;14.73;12.45;;;;;;;;;;5065799;28;20065;-83
2023/08/11 03:01:25;;;;;;;20.70;12.45;;;;;;;;;;5039273;28;20127;-83
2023/08/11 03:03:52;;;;;;;15.43;12.50;;;;;;;;;;5065842;28;20041;-83
2023/08/11 03:06:18;;;;;;;14.35;11.82;;;;;;;;;;5060455;28;20048;-83
2023/08/11 03:08:45;;;;;;;13.90;12.40;;;;;;;;;;5070240;28;20049;-83
2023/08/11 03:11:11;;;;;;;14.52;12.23;;;;;;;;;;5066060;28;20045;-83
2023/08/11 03:13:40;;;;;;;14.48;12.05;;;;;;;;;;5069707;28;20041;-82
2023/08/11 03:16:06;;;;;;;14.27;11.68;;;;;;;;;;5070862;28;20052;-83
2023/08/11 03:18:33;;;;;;;14.43;11.57;;;;;;;;;;5066016;28;20046;-83
2023/08/11 03:21:02;;;;;;;15.73;12.10;;;;;;;;;;5060752;28;20056;-83
2023/08/11 03:23:28;;;;;;;14.85;12.00;;;;;;;;;;5073617;28;20049;-84
2023/08/11 03:25:55;;;;;;;14.80;11.45;;;;;;;;;;5077644;28;20037;-83
2023/08/11 03:28:21;;;;;;;12.98;11.27;;;;;;;;;;5075182;28;20037;-83
2023/08/11 03:30:47;;;;;;;13.68;10.45;;;;;;;;;;5073238;28;20049;-82
2023/08/11 03:33:13;;;;;;;15.20;11.77;;;;;;;;;;5065164;28;20148;-82
2023/08/11 03:35:39;;;;;;;15.35;12.07;;;;;;;;;;5073997;28;20048;-83
2023/08/11 03:38:05;;;;;;;13.85;11.68;;;;;;;;;;5055575;28;20132;-83
2023/08/11 03:40:33;;;;;;;13.52;11.98;;;;;;;;;;5073517;28;20059;-82
2023/08/11 03:42:59;;;;;;;16.70;12.13;;;;;;;;;;5072170;28;20061;-83
2023/08/11 03:45:25;;;;;;;15.15;12.63;;;;;;;;;;5070721;28;20041;-82
2023/08/11 03:47:51;;;;;;;14.77;11.60;;;;;;;;;;5071712;28;20049;-83
2023/08/11 03:50:17;;;;;;;13.95;12.45;;;;;;;;;;5055462;28;20040;-82
2023/08/11 03:52:46;;;;;;;17.30;12.07;;;;;;;;;;5072812;28;20099;-83
2023/08/11 03:55:12;;;;;;;16.70;12.27;;;;;;;;;;5071588;28;20037;-83
2023/08/11 03:57:38;;;;;;;15.77;11.60;;;;;;;;;;5071923;28;20051;-83
2023/08/11 04:00:11;;;;;;;15.82;12.32;;;;;;;;;;5033989;28;20051;-83
2023/08/11 04:02:40;;;;;;;13.48;11.68;;;;;;;;;;5017787;28;20042;-83
2023/08/11 04:05:06;;;;;;;14.45;11.63;;;;;;;;;;5024231;28;20077;-83
2023/08/11 04:07:32;;;;;;;14.40;10.88;;;;;;;;;;5019934;28;20049;-83
2023/08/11 04:09:58;;;;;;;13.15;11.10;;;;;;;;;;5030965;28;20045;-83
2023/08/11 04:12:27;;;;;;;16.02;11.57;;;;;;;;;;5011503;28;20057;-83
2023/08/11 04:14:53;;;;;;;18.48;12.00;;;;;;;;;;5022227;28;20056;-83
2023/08/11 04:17:19;;;;;;;12.00;10.80;;;;;;;;;;5030360;28;20105;-82
2023/08/11 04:19:46;;;;;;;13.57;10.77;;;;;;;;;;5029937;28;20063;-82
2023/08/11 04:22:12;;;;;;;14.10;10.77;;;;;;;;;;5029550;28;20098;-82
2023/08/11 04:24:38;;;;;;;14.95;11.05;;;;;;;;;;5026847;28;20054;-82
2023/08/11 04:27:05;;;;;;;15.00;10.57;;;;;;;;;;5029588;28;20046;-82
2023/08/11 04:29:32;;;;;;;14.23;10.77;;;;;;;;;;5028806;28;20046;-83
2023/08/11 04:32:04;;;;;;;16.55;11.52;;;;;;;;;;5029457;28;20127;-83
2023/08/11 04:34:30;;;;;;;16.33;11.52;;;;;;;;;;5027644;28;20042;-83
2023/08/11 04:36:56;;;;;;;12.68;10.90;;;;;;;;;;5027739;28;20117;-83
2023/08/11 04:39:22;;;;;;;14.80;10.35;;;;;;;;;;5029761;28;20042;-82
2023/08/11 04:41:48;;;;;;;16.15;10.43;;;;;;;;;;5028737;28;20105;-83
2023/08/11 04:44:15;;;;;;;13.93;10.80;;;;;;;;;;5025985;28;20168;-83
2023/08/11 04:46:41;;;;;;;14.55;11.30;;;;;;;;;;5015445;28;20034;-82
2023/08/11 04:49:07;;;;;;;12.50;10.13;;;;;;;;;;5029205;28;20045;-81
2023/08/11 04:51:36;;;;;;;15.38;9.88;;;;;;;;;;5029019;28;20073;-83
2023/08/11 04:54:03;;;;;;;14.38;10.13;;;;;;;;;;5029029;28;20050;-83
2023/08/11 04:56:29;;;;;;;13.52;9.88;;;;;;;;;;5025809;28;20045;-83
2023/08/11 04:58:56;;;;;;;16.15;9.88;;;;;;;;;;4991312;28;1127331;-82
2023/08/11 05:01:22;;;;;;;12.85;9.65;;;;;;;;;;5069379;28;20075;-83
2023/08/11 05:03:52;;;;;;;15.13;9.90;;;;;;;;;;5067689;28;20057;-83
2023/08/11 05:06:19;;;;;;;11.90;9.60;;;;;;;;;;5065216;28;20050;-83
2023/08/11 05:08:47;;;;;;;12.48;9.20;;;;;;;;;;5058044;28;20059;-82
2023/08/11 05:11:13;;;;;;;10.15;9.00;;;;;;;;;;5051646;28;20045;-82
2023/08/11 05:13:39;;;;;;;10.23;8.73;;;;;;;;;;5070576;28;20053;-82
2023/08/11 05:16:05;;;;;;;13.38;9.35;;;;;;;;;;5069880;28;20052;-82
2023/08/11 05:18:31;;;;;;;13.25;8.48;;;;;;;;;;5070275;28;20045;-82
2023/08/11 05:20:57;;;;;;;11.07;8.65;;;;;;;;;;5068452;28;20052;-84
2023/08/11 05:23:24;;;;;;;12.85;8.75;;;;;;;;;;5069468;28;20041;-82
2023/08/11 05:25:50;;;;;;;11.13;8.65;;;;;;;;;;5069178;28;20087;-82
2023/08/11 05:28:16;;;;;;;14.25;8.75;;;;;;;;;;5067324;28;20119;-82
2023/08/11 05:30:42;;;;;;;12.23;9.13;;;;;;;;;;5068344;28;20072;-83
2023/08/11 05:33:08;;;;;;;16.23;8.32;;;;;;;;;;5065744;28;20442;-83
2023/08/11 05:35:34;;;;;;;10.48;8.43;;;;;;;;;;5050934;28;20101;-83
2023/08/11 05:38:01;;;;;;;13.50;7.80;;;;;;;;;;5067779;28;20048;-83
2023/08/11 05:40:29;;;;;;;11.05;7.30;;;;;;;;;;5067750;28;20052;-83
2023/08/11 05:42:55;;;;;;;12.35;6.90;;;;;;;;;;5068894;28;20056;-84
2023/08/11 05:45:21;;;;;;;10.82;6.53;;;;;;;;;;5063385;28;20112;-83
2023/08/11 05:47:47;;;;;;;11.93;6.60;;;;;;;;;;5032480;28;20045;-83
2023/08/11 05:50:13;;;;;;;9.50;6.40;;;;;;;;;;5039186;28;20050;-83
2023/08/11 05:52:40;;;;;;;9.20;6.68;;;;;;;;;;5062513;28;20045;-82
2023/08/11 05:55:06;;;;;;;9.65;6.70;;;;;;;;;;5070497;28;20048;-83
2023/08/11 05:57:32;;;;;;;10.30;6.22;;;;;;;;;;5050771;28;20047;-83
2023/08/11 05:59:58;;;;;;;10.07;6.00;;;;;;;;;;5051755;28;20052;-84
2023/08/11 06:02:24;;;;;;;9.55;6.43;;;;;;;;;;5051997;28;20056;-83
2023/08/11 06:04:51;;;;;;;8.73;5.70;;;;;;;;;;5067105;28;20078;-83
2023/08/11 06:07:17;;;;;;;9.73;5.90;;;;;;;;;;5050547;28;20048;-83
2023/08/11 06:09:44;;;;;;;8.48;5.68;;;;;;;;;;5046117;28;20476;-84
2023/08/11 06:12:10;;;;;;;8.40;5.95;;;;;;;;;;5058336;28;20055;-83
2023/08/11 06:14:39;;;;;;;11.50;5.20;;;;;;;;;;5060368;28;20033;-83
2023/08/11 06:17:05;;;;;;;8.27;5.20;;;;;;;;;;5059432;28;20049;-82
2023/08/11 06:19:32;;;;;;;8.93;5.18;;;;;;;;;;5070537;28;20052;-83
2023/08/11 06:21:59;;;;;;;9.35;5.13;;;;;;;;;;5071548;28;20111;-83
2023/08/11 06:24:25;;;;;;;9.35;5.05;;;;;;;;;;5072667;28;20069;-84
2023/08/11 06:26:51;;;;;;;8.43;5.68;;;;;;;;;;5067475;28;20052;-84
2023/08/11 06:29:18;;;;;;;9.93;5.20;;;;;;;;;;5069563;28;20055;-83
2023/08/11 06:31:44;;;;;;;10.32;5.15;;;;;;;;;;5069510;28;20070;-83
2023/08/11 06:34:10;;;;;;;8.68;4.43;;;;;;;;;;5067885;28;20120;-82
2023/08/11 06:36:36;;;;;;;8.95;4.75;;;;;;;;;;5050798;28;20049;-83
2023/08/11 06:39:02;;;;;;;8.27;4.75;;;;;;;;;;5053120;28;20129;-82
2023/08/11 06:41:28;;;;;;;9.35;4.43;;;;;;;;;;5052344;28;20060;-83
2023/08/11 06:43:56;;;;;;;7.43;4.10;;;;;;;;;;5047206;28;20362;-82
2023/08/11 06:46:22;;;;;;;7.40;4.35;;;;;;;;;;5051667;28;20079;-83
2023/08/11 06:48:48;;;;;;;8.57;4.47;;;;;;;;;;5061119;28;20097;-83
2023/08/11 06:51:14;;;;;;;9.55;4.63;;;;;;;;;;5054060;28;20041;-84
2023/08/11 06:53:40;;;;;;;8.57;4.25;;;;;;;;;;5053044;28;20114;-83
2023/08/11 06:56:07;;;;;;;7.90;4.07;;;;;;;;;;5063505;28;20048;-82
2023/08/11 06:58:33;;;;;;;8.00;4.13;;;;;;;;;;5068491;28;20037;-83
2023/08/11 07:00:59;;;;;;;7.28;3.90;;;;;;;;;;5064522;28;20096;-83
2023/08/11 07:03:25;;;;;;;8.48;3.92;;;;;;;;;;5063476;28;20037;-83
2023/08/11 07:05:52;;;;;;;7.85;3.58;;;;;;;;;;5065068;28;20048;-83
2023/08/11 07:08:19;;;;;;;7.25;3.55;;;;;;;;;;5067685;28;20091;-83
2023/08/11 07:10:48;;;;;;;7.18;3.25;;;;;;;;;;5068582;28;20049;-83
2023/08/11 07:13:14;;;;;;;6.65;3.50;;;;;;;;;;5069230;28;20095;-82
2023/08/11 07:15:40;;;;;;;7.25;3.33;;;;;;;;;;5049017;28;20041;-83
2023/08/11 07:18:06;;;;;;;6.18;3.20;;;;;;;;;;5056004;28;20032;-84
2023/08/11 07:20:33;;;;;;;9.27;3.33;;;;;;;;;;5064085;28;20048;-83
2023/08/11 07:23:02;;;;;;;7.57;3.13;;;;;;;;;;5060650;28;20037;-82
2023/08/11 07:25:28;;;;;;;7.60;2.97;;;;;;;;;;5035073;28;20079;-81
2023/08/11 07:27:55;;;;;;;7.75;3.20;;;;;;;;;;5066388;28;20041;-83
2023/08/11 07:30:21;;;;;;;6.25;2.72;;;;;;;;;;5068320;28;20077;-83
2023/08/11 07:32:47;;;;;;;5.97;2.50;;;;;;;;;;5044181;28;20063;-82
2023/08/11 07:35:13;;;;;;;7.97;2.50;;;;;;;;;;5065694;28;20037;-83
2023/08/11 07:37:39;;;;;;;8.30;2.53;;;;;;;;;;5048528;28;20025;-83
2023/08/11 07:40:06;;;;;;;5.45;2.55;;;;;;;;;;5069077;28;20037;-83
2023/08/11 07:42:32;;;;;;;5.47;2.00;;;;;;;;;;5069138;28;20060;-83
2023/08/11 07:45:01;;;;;;;11.30;2.25;;;;;;;;;;5052036;28;20055;-84
2023/08/11 07:47:27;;;;;;;6.70;2.67;;;;;;;;;;5066290;28;20068;-83
2023/08/11 07:49:53;;;;;;;5.82;2.17;;;;;;;;;;5065679;28;20037;-82
2023/08/11 07:52:20;;;;;;;6.50;2.38;;;;;;;;;;5057174;28;20072;-82
2023/08/11 07:54:46;;;;;;;6.60;2.50;;;;;;;;;;5067347;28;20048;-83
2023/08/11 07:57:12;;;;;;;5.68;2.20;;;;;;;;;;5047642;28;20388;-82
2023/08/11 07:59:38;;;;;;;6.72;2.00;;;;;;;;;;5068100;28;20049;-83
2023/08/11 08:02:04;;;;;;;6.30;2.25;;;;;;;;;;5066707;28;20105;-83
2023/08/11 08:04:30;;;;;;;5.22;2.30;;;;;;;;;;5040965;28;20522;-82
2023/08/11 08:06:57;;;;;;;7.28;2.55;;;;;;;;;;5059349;28;20113;-83
2023/08/11 08:09:23;;;;;;;5.18;2.05;;;;;;;;;;5064949;28;20140;-83
2023/08/11 08:11:50;;;;;;;6.82;2.28;;;;;;;;;;5071269;28;20052;-82
2023/08/11 08:14:16;;;;;;;4.95;2.60;;;;;;;;;;5051428;28;20053;-82
2023/08/11 08:16:46;;;;;;;7.35;2.20;;;;;;;;;;5069476;28;20192;-82
2023/08/11 08:19:14;;;;;;;7.13;2.47;;;;;;;;;;5066018;28;20044;-82
2023/08/11 08:21:41;;;;;;;8.48;2.45;;;;;;;;;;5064542;28;20069;-83
2023/08/11 08:24:08;;;;;;;6.32;2.20;;;;;;;;;;5054402;28;20481;-81
2023/08/11 08:26:35;;;;;;;8.30;2.50;;;;;;;;;;5045400;28;20049;-82
2023/08/11 08:29:01;;;;;;;7.25;2.38;;;;;;;;;;5064183;28;20052;-83
2023/08/11 08:31:31;;;;;;;5.85;2.30;;;;;;;;;;5069918;28;20052;-82
2023/08/11 08:33:57;;;;;;;7.00;2.95;;;;;;;;;;5069908;28;20037;-82
2023/08/11 08:36:23;;;;;;;4.82;2.45;;;;;;;;;;5069561;28;20426;-82
2023/08/11 08:38:49;;;;;;;6.00;2.40;;;;;;;;;;5051789;28;20053;-82
2023/08/11 08:41:19;;;;;;;8.57;2.65;;;;;;;;;;5051995;28;20083;-82
2023/08/11 08:43:46;;;;;;;7.90;2.50;;;;;;;;;;5053813;28;20093;-83
2023/08/11 08:46:14;;;;;;;5.88;2.40;;;;;;;;;;5060718;28;20048;-82
2023/08/11 08:48:44;;;;;;;8.60;2.70;;;;;;;;;;5067940;28;20045;-82
2023/08/11 08:51:10;;;;;;;8.82;3.22;;;;;;;;;;5065893;28;20056;-83
2023/08/11 08:53:36;;;;;;;6.07;2.85;;;;;;;;;;5072146;28;20100;-81
2023/08/11 08:56:04;;;;;;;8.65;2.80;;;;;;;;;;5055005;28;20091;-83
2023/08/11 08:58:31;;;;;;;10.25;3.13;;;;;;;;;;5073126;28;20108;-81
2023/08/11 09:00:59;;;;;;;10.75;3.00;;;;;;;;;;5067656;28;20113;-83
2023/08/11 09:03:26;;;;;;;6.32;3.00;;;;;;;;;;5062993;28;20041;-83
2023/08/11 09:05:52;;;;;;;7.38;3.25;;;;;;;;;;5064346;28;20059;-83
2023/08/11 09:08:18;;;;;;;8.00;3.20;;;;;;;;;;5073756;28;20059;-82
2023/08/11 09:10:44;;;;;;;7.28;2.92;;;;;;;;;;5057006;28;20096;-82
2023/08/11 09:13:11;;;;;;;7.00;3.08;;;;;;;;;;5073442;28;20152;-81
2023/08/11 09:15:37;;;;;;;8.77;3.28;;;;;;;;;;5058401;28;20040;-82
2023/08/11 09:18:04;;;;;;;8.38;3.60;;;;;;;;;;5072951;28;20051;-82
2023/08/11 09:20:30;;;;;;;9.00;2.90;;;;;;;;;;5061231;28;20049;-83
2023/08/11 09:22:56;;;;;;;6.90;3.30;;;;;;;;;;5057500;28;20144;-83
2023/08/11 09:25:22;;;;;;;6.70;3.00;;;;;;;;;;5067300;28;20045;-83
2023/08/11 09:27:51;;;;;;;6.80;3.33;;;;;;;;;;5034502;28;20049;-83
2023/08/11 09:30:17;;;;;;;6.35;3.10;;;;;;;;;;5071335;28;20048;-83
2023/08/11 09:32:48;;;;;;;7.53;3.20;;;;;;;;;;5072018;28;20548;-82
2023/08/11 09:35:14;;;;;;;11.30;3.00;;;;;;;;;;5055081;28;20105;-83
2023/08/11 09:37:43;;;;;;;8.10;3.35;;;;;;;;;;5072881;28;20045;-83
2023/08/11 09:40:11;;;;;;;10.23;4.03;;;;;;;;;;5058760;28;20060;-83
2023/08/11 09:42:38;;;;;;;9.73;3.20;;;;;;;;;;5052806;28;20084;-83
2023/08/11 09:45:04;;;;;;;8.75;3.17;;;;;;;;;;5071047;28;20044;-83
2023/08/11 09:47:30;;;;;;;7.53;3.33;;;;;;;;;;5065708;28;20037;-83
2023/08/11 09:49:57;;;;;;;8.07;3.35;;;;;;;;;;5072831;28;20075;-83
2023/08/11 09:52:23;;;;;;;8.57;3.10;;;;;;;;;;5072839;28;20123;-82
2023/08/11 09:54:50;;;;;;;10.57;3.10;;;;;;;;;;5072119;28;20142;-83
2023/08/11 09:57:16;;;;;;;6.05;3.13;;;;;;;;;;5072210;28;20434;-83
2023/08/11 09:59:44;;;;;;;8.80;3.28;;;;;;;;;;5055476;28;20040;-82
2023/08/11 10:02:12;;;;;;;7.75;3.22;;;;;;;;;;5072742;28;20067;-83
2023/08/11 10:04:43;;;;;;;7.00;3.38;;;;;;;;;;5055515;28;20135;-82
2023/08/11 10:07:13;;;;;;;8.73;3.40;;;;;;;;;;5071487;28;20047;-83
2023/08/11 10:09:40;;;;;;;8.15;3.38;;;;;;;;;;5071259;28;20049;-81
2023/08/11 10:12:07;;;;;;;8.70;3.33;;;;;;;;;;5054016;28;20101;-82
2023/08/11 10:14:35;;;;;;;8.82;3.60;;;;;;;;;;5071352;28;20059;-82
2023/08/11 10:17:01;;;;;;;11.30;4.13;;;;;;;;;;5069434;28;20041;-83
2023/08/11 10:19:27;;;;;;;7.65;3.00;;;;;;;;;;5072340;28;20048;-82
2023/08/11 10:21:54;;;;;;;8.77;3.00;;;;;;;;;;5055422;28;20041;-84
2023/08/11 10:24:21;;;;;;;8.05;3.05;;;;;;;;;;5070687;28;20033;-82
2023/08/11 10:26:47;;;;;;;10.68;3.30;;;;;;;;;;5069686;28;20048;-82
2023/08/11 10:29:16;;;;;;;7.80;3.13;;;;;;;;;;5071138;28;20045;-82
2023/08/11 10:32:01;;;;;;;8.60;3.10;;;;;;;;;;5037812;28;20068;-82
2023/08/11 10:34:27;;;;;;;7.28;3.33;;;;;;;;;;5051001;28;20041;-81
2023/08/11 10:36:57;;;;;;;9.38;3.08;;;;;;;;;;5062413;28;20045;-82
2023/08/11 10:39:24;;;;;;;7.75;3.33;;;;;;;;;;5071119;28;20041;-82
2023/08/11 10:41:50;;;;;;;7.10;3.15;;;;;;;;;;5071739;28;20105;-82
2023/08/11 10:44:18;;;;;;;6.75;2.55;;;;;;;;;;5071153;28;20048;-81
2023/08/11 10:46:45;;;;;;;5.63;2.50;;;;;;;;;;5071355;28;20041;-81
2023/08/11 10:49:11;;;;;;;7.50;2.80;;;;;;;;;;5071118;28;20076;-81
2023/08/11 10:51:38;;;;;;;8.35;2.83;;;;;;;;;;5037079;28;20049;-81
2023/08/11 10:54:09;;;;;;;9.38;2.70;;;;;;;;;;5050279;28;20049;-80
2023/08/11 10:56:35;;;;;;;;;;;;;;;;;;5071809;28;20041;-81
2023/08/11 10:59:20;;;;;;;6.20;2.70;;;;;;;;;;5054309;28;19921;-80
2023/08/11 11:01:50;;;;;;;6.10;2.42;;;;;;;;;;5053820;28;20052;-81
2023/08/11 11:04:17;;;;;;;5.97;2.42;;;;;;;;;;5069560;28;20064;-81
2023/08/11 11:06:44;;;;;;;7.43;2.60;;;;;;;;;;5050833;28;20171;-81
2023/08/11 11:09:11;;;;;;;7.20;2.63;;;;;;;;;;5068465;28;20214;-81
2023/08/11 11:11:37;;;;;;;6.47;2.90;;;;;;;;;;5058996;28;20052;-79
2023/08/11 11:14:04;;;;;;;7.38;2.72;;;;;;;;;;5068403;28;20056;-79
2023/08/11 11:16:32;;;;;;;6.25;2.33;;;;;;;;;;5069302;28;20076;-80
2023/08/11 11:18:59;;;;;;;6.68;2.47;;;;;;;;;;5066038;28;20041;-80
2023/08/11 11:21:25;;;;;;;4.65;2.20;;;;;;;;;;5063174;28;20151;-79
2023/08/11 11:23:52;;;;;;;6.88;2.35;;;;;;;;;;5069804;28;20049;-80
2023/08/11 11:26:22;;;;;;;8.43;2.60;;;;;;;;;;5051796;28;20049;-79
2023/08/11 11:28:49;;;;;;;8.85;2.50;;;;;;;;;;5051474;28;20125;-80
2023/08/11 11:31:16;;;;;;;9.10;2.70;;;;;;;;;;5068766;28;20043;-79
2023/08/11 11:33:42;;;;;;;6.18;2.38;;;;;;;;;;5069921;28;20036;-79
2023/08/11 11:36:08;;;;;;;5.93;2.50;;;;;;;;;;5070019;28;20059;-81
2023/08/11 11:38:34;;;;;;;8.43;2.70;;;;;;;;;;5073903;28;20120;-80
2023/08/11 11:41:00;;;;;;;6.90;2.65;;;;;;;;;;5055860;28;20122;-81
2023/08/11 11:43:27;;;;;;;7.40;2.30;;;;;;;;;;5038742;28;20505;-80
2023/08/11 11:45:54;;;;;;;7.68;2.30;;;;;;;;;;5073122;28;20093;-82
2023/08/11 11:48:21;;;;;;;7.45;2.25;;;;;;;;;;5071012;28;20052;-80
2023/08/11 11:50:48;;;;;;;7.80;2.80;;;;;;;;;;5073174;28;20037;-80
2023/08/11 11:53:14;;;;;;;6.63;2.42;;;;;;;;;;5070773;28;20037;-80
2023/08/11 11:55:47;;;;;;;7.40;2.35;;;;;;;;;;5066056;28;20047;-81
2023/08/11 11:58:17;;;;;;;6.03;2.20;;;;;;;;;;5071542;28;20054;-81
2023/08/11 12:00:46;;;;;;;5.47;2.13;;;;;;;;;;5072020;28;20132;-81
2023/08/11 12:03:12;;;;;;;6.28;2.63;;;;;;;;;;5073051;28;20080;-80
2023/08/11 12:05:42;;;;;;;6.20;2.28;;;;;;;;;;5068149;28;20101;-81
2023/08/11 12:08:19;;;;;;;8.98;2.63;;;;;;;;;;5072383;28;20057;-80
2023/08/11 12:10:46;;;;;;;7.43;2.45;;;;;;;;;;5072203;28;20088;-81
2023/08/11 12:13:12;;;;;;;6.53;2.35;;;;;;;;;;5072097;28;20045;-81
2023/08/11 12:15:39;;;;;;;7.70;2.83;;;;;;;;;;5071232;28;20403;-80
2023/08/11 12:18:05;;;;;;;4.82;2.35;;;;;;;;;;5071548;28;20100;-80
2023/08/11 12:20:32;;;;;;;8.13;2.50;;;;;;;;;;5054372;28;20504;-80
2023/08/11 12:23:00;;;;;;;5.47;2.25;;;;;;;;;;5055040;28;20053;-80
2023/08/11 12:25:26;;;;;;;9.98;2.15;;;;;;;;;;5072411;28;20040;-80
2023/08/11 12:27:56;;;;;;;6.88;2.20;;;;;;;;;;5020227;28;20045;-80
2023/08/11 12:30:22;;;;;;;6.07;2.37;;;;;;;;;;5064973;28;20051;-80
2023/08/11 12:32:48;;;;;;;6.72;2.20;;;;;;;;;;5072209;28;20746;-80
2023/08/11 12:35:14;;;;;;;4.53;2.03;;;;;;;;;;5071697;28;20078;-80
2023/08/11 12:37:40;;;;;;;9.55;2.30;;;;;;;;;;5055207;28;20036;-80
2023/08/11 12:40:09;;;;;;;6.55;2.17;;;;;;;;;;5055102;28;20056;-81
2023/08/11 12:42:36;;;;;;;6.63;2.20;;;;;;;;;;5072173;28;20113;-80
2023/08/11 12:45:03;;;;;;;6.00;2.22;;;;;;;;;;5071220;28;20044;-80
2023/08/11 12:47:29;;;;;;;7.57;2.55;;;;;;;;;;5072328;28;20059;-81
2023/08/11 12:49:55;;;;;;;6.30;2.40;;;;;;;;;;5053939;28;20045;-80
2023/08/11 12:52:21;;;;;;;6.78;2.45;;;;;;;;;;5054380;28;20061;-80
2023/08/11 12:54:47;;;;;;;7.60;2.47;;;;;;;;;;5054813;28;20080;-80
2023/08/11 12:57:13;;;;;;;8.30;2.33;;;;;;;;;;5068626;28;20037;-81
2023/08/11 12:59:39;;;;;;;5.40;2.13;;;;;;;;;;5054063;28;20525;-81
2023/08/11 13:02:06;;;;;;;7.05;2.25;;;;;;;;;;5072645;28;20053;-81
2023/08/11 13:04:32;;;;;;;6.28;2.35;;;;;;;;;;5071903;28;20120;-81
2023/08/11 13:06:58;;;;;;;6.68;2.60;;;;;;;;;;5058955;28;20042;-81
2023/08/11 13:09:27;;;;;;;7.97;2.40;;;;;;;;;;5054841;28;20068;-81
2023/08/11 13:11:53;;;;;;;7.85;2.80;;;;;;;;;;5068945;28;20045;-82
2023/08/11 13:14:19;;;;;;;6.70;2.45;;;;;;;;;;5072979;28;20052;-81
2023/08/11 13:16:46;;;;;;;8.05;2.50;;;;;;;;;;5037973;28;20048;-82
2023/08/11 13:19:13;;;;;;;7.82;2.45;;;;;;;;;;5072411;28;20079;-81
2023/08/11 13:21:39;;;;;;;7.57;2.40;;;;;;;;;;5071749;28;20049;-83
2023/08/11 13:24:05;;;;;;;5.25;2.40;;;;;;;;;;5055205;28;20048;-81
2023/08/11 13:26:32;;;;;;;5.45;2.30;;;;;;;;;;5072093;28;20048;-81
2023/08/11 13:29:01;;;;;;;6.32;2.25;;;;;;;;;;5068882;28;20041;-83
2023/08/11 13:31:27;;;;;;;6.65;2.55;;;;;;;;;;5072523;28;20044;-82
2023/08/11 13:33:53;;;;;;;7.95;2.97;;;;;;;;;;5071772;28;20045;-82
2023/08/11 13:36:20;;;;;;;5.75;2.63;;;;;;;;;;5074019;28;20116;-82
2023/08/11 13:38:46;;;;;;;5.97;2.60;;;;;;;;;;5055867;28;20155;-82
2023/08/11 13:41:12;;;;;;;9.32;2.75;;;;;;;;;;5073186;28;20059;-81
2023/08/11 13:43:38;;;;;;;7.95;2.60;;;;;;;;;;5050566;28;20440;-82
2023/08/11 13:46:04;;;;;;;6.22;2.70;;;;;;;;;;5057536;28;20013;-82
2023/08/11 13:48:31;;;;;;;7.50;2.55;;;;;;;;;;5055384;28;20095;-82
2023/08/11 13:50:57;;;;;;;8.05;2.80;;;;;;;;;;5072694;28;20083;-83
2023/08/11 13:53:23;;;;;;;7.40;2.80;;;;;;;;;;5073215;28;20052;-81
2023/08/11 13:55:49;;;;;;;7.30;2.58;;;;;;;;;;5073131;28;20041;-81
2023/08/11 13:58:15;;;;;;;7.88;2.80;;;;;;;;;;5072735;28;20053;-80
2023/08/11 14:00:41;;;;;;;8.63;2.75;;;;;;;;;;5072151;28;20049;-80
2023/08/11 14:03:07;;;;;;;10.93;2.70;;;;;;;;;;5073001;28;20064;-81
2023/08/11 14:05:34;;;;;;;8.95;2.63;;;;;;;;;;5051987;28;20107;-82
2023/08/11 14:08:00;;;;;;;9.32;2.58;;;;;;;;;;5066003;28;20041;-82
2023/08/11 14:10:26;;;;;;;7.35;2.90;;;;;;;;;;5068252;28;20044;-82
2023/08/11 14:12:53;;;;;;;6.68;2.53;;;;;;;;;;5070913;28;20045;-83
2023/08/11 14:15:19;;;;;;;10.18;2.88;;;;;;;;;;5071242;28;20041;-84
2023/08/11 14:17:45;;;;;;;10.75;2.95;;;;;;;;;;5072477;28;20055;-82
2023/08/11 14:20:11;;;;;;;9.52;2.63;;;;;;;;;;5072679;28;20021;-83
2023/08/11 14:22:40;;;;;;;10.35;2.83;;;;;;;;;;5064629;28;20438;-83
2023/08/11 14:25:06;;;;;;;8.93;2.70;;;;;;;;;;5058550;28;20045;-82
2023/08/11 14:27:32;;;;;;;9.75;2.70;;;;;;;;;;5052933;28;20028;-81
2023/08/11 14:30:02;;;;;;;8.82;3.08;;;;;;;;;;5053534;28;20052;-82
2023/08/11 14:32:28;;;;;;;9.60;2.88;;;;;;;;;;5072315;28;20047;-82